sensor_id;sensor_type;location;lat;lon;timestamp;P1;durP1;ratioP1;P2;durP2;ratioP2
54464;SDS011;40374;49.480;20.016;2023-04-06T00:01:52;44.17;;;18.08;;
54464;SDS011;40374;49.480;20.016;2023-04-06T00:04:19;33.63;;;13.52;;
54464;SDS011;40374;49.480;20.016;2023-04-06T00:06:47;29.45;;;13.68;;
54464;SDS011;40374;49.480;20.016;2023-04-06T00:09:17;34.20;;;13.55;;
54464;SDS011;40374;49.480;20.016;2023-04-06T00:11:44;37.95;;;14.95;;
54464;SDS011;40374;49.480;20.016;2023-04-06T00:14:12;29.52;;;12.82;;
54464;SDS011;40374;49.480;20.016;2023-04-06T00:16:40;36.38;;;11.55;;
54464;SDS011;40374;49.480;20.016;2023-04-06T00:19:08;24.45;;;10.70;;
54464;SDS011;40374;49.480;20.016;2023-04-06T00:21:35;23.52;;;9.40;;
54464;SDS011;40374;49.480;20.016;2023-04-06T00:24:03;23.25;;;9.15;;
54464;SDS011;40374;49.480;20.016;2023-04-06T00:26:31;26.00;;;11.27;;
54464;SDS011;40374;49.480;20.016;2023-04-06T00:28:58;27.60;;;11.27;;
54464;SDS011;40374;49.480;20.016;2023-04-06T00:31:26;24.30;;;10.48;;
54464;SDS011;40374;49.480;20.016;2023-04-06T00:33:53;23.40;;;10.05;;
54464;SDS011;40374;49.480;20.016;2023-04-06T00:36:21;19.42;;;9.75;;
54464;SDS011;40374;49.480;20.016;2023-04-06T00:38:48;31.13;;;11.68;;
54464;SDS011;40374;49.480;20.016;2023-04-06T00:41:17;24.38;;;10.30;;
54464;SDS011;40374;49.480;20.016;2023-04-06T00:43:46;28.77;;;10.90;;
54464;SDS011;40374;49.480;20.016;2023-04-06T00:46:13;30.50;;;10.85;;
54464;SDS011;40374;49.480;20.016;2023-04-06T00:48:41;30.60;;;12.55;;
54464;SDS011;40374;49.480;20.016;2023-04-06T00:51:08;28.85;;;11.05;;
54464;SDS011;40374;49.480;20.016;2023-04-06T00:53:36;29.25;;;10.57;;
54464;SDS011;40374;49.480;20.016;2023-04-06T00:56:04;24.90;;;9.43;;
54464;SDS011;40374;49.480;20.016;2023-04-06T00:58:43;32.85;;;12.63;;
54464;SDS011;40374;49.480;20.016;2023-04-06T01:01:11;40.95;;;15.45;;
54464;SDS011;40374;49.480;20.016;2023-04-06T01:03:39;37.20;;;14.48;;
54464;SDS011;40374;49.480;20.016;2023-04-06T01:06:11;39.13;;;15.60;;
54464;SDS011;40374;49.480;20.016;2023-04-06T01:08:40;36.65;;;15.40;;
54464;SDS011;40374;49.480;20.016;2023-04-06T01:11:20;47.38;;;19.50;;
54464;SDS011;40374;49.480;20.016;2023-04-06T01:13:49;41.17;;;17.05;;
54464;SDS011;40374;49.480;20.016;2023-04-06T01:16:31;44.00;;;16.95;;
54464;SDS011;40374;49.480;20.016;2023-04-06T01:19:11;36.15;;;14.07;;
54464;SDS011;40374;49.480;20.016;2023-04-06T01:21:46;30.67;;;13.77;;
54464;SDS011;40374;49.480;20.016;2023-04-06T01:24:28;30.55;;;13.93;;
54464;SDS011;40374;49.480;20.016;2023-04-06T01:27:09;30.52;;;11.85;;
54464;SDS011;40374;49.480;20.016;2023-04-06T01:29:49;35.55;;;13.15;;
54464;SDS011;40374;49.480;20.016;2023-04-06T01:32:31;34.92;;;14.10;;
54464;SDS011;40374;49.480;20.016;2023-04-06T01:34:58;36.75;;;15.07;;
54464;SDS011;40374;49.480;20.016;2023-04-06T01:37:27;38.40;;;16.02;;
54464;SDS011;40374;49.480;20.016;2023-04-06T01:39:56;34.45;;;15.57;;
54464;SDS011;40374;49.480;20.016;2023-04-06T01:42:37;42.67;;;15.75;;
54464;SDS011;40374;49.480;20.016;2023-04-06T01:45:06;33.63;;;13.05;;
54464;SDS011;40374;49.480;20.016;2023-04-06T01:47:34;37.78;;;14.57;;
54464;SDS011;40374;49.480;20.016;2023-04-06T01:50:02;38.35;;;14.95;;
54464;SDS011;40374;49.480;20.016;2023-04-06T01:52:37;41.60;;;15.48;;
54464;SDS011;40374;49.480;20.016;2023-04-06T01:55:05;42.15;;;15.88;;
54464;SDS011;40374;49.480;20.016;2023-04-06T01:57:51;37.00;;;14.75;;
54464;SDS011;40374;49.480;20.016;2023-04-06T02:00:30;36.88;;;14.43;;
54464;SDS011;40374;49.480;20.016;2023-04-06T02:02:58;42.78;;;14.73;;
54464;SDS011;40374;49.480;20.016;2023-04-06T02:05:29;39.65;;;16.10;;
54464;SDS011;40374;49.480;20.016;2023-04-06T02:07:59;37.72;;;14.77;;
54464;SDS011;40374;49.480;20.016;2023-04-06T02:10:31;46.28;;;15.82;;
54464;SDS011;40374;49.480;20.016;2023-04-06T02:13:07;39.03;;;15.68;;
54464;SDS011;40374;49.480;20.016;2023-04-06T02:15:35;43.50;;;16.42;;
54464;SDS011;40374;49.480;20.016;2023-04-06T02:18:02;42.70;;;15.00;;
54464;SDS011;40374;49.480;20.016;2023-04-06T02:20:30;40.40;;;16.58;;
54464;SDS011;40374;49.480;20.016;2023-04-06T02:22:58;38.60;;;15.95;;
54464;SDS011;40374;49.480;20.016;2023-04-06T02:25:27;42.60;;;15.32;;
54464;SDS011;40374;49.480;20.016;2023-04-06T02:27:55;38.45;;;16.77;;
54464;SDS011;40374;49.480;20.016;2023-04-06T02:30:22;35.75;;;15.75;;
54464;SDS011;40374;49.480;20.016;2023-04-06T02:32:49;39.05;;;16.55;;
54464;SDS011;40374;49.480;20.016;2023-04-06T02:35:17;34.38;;;15.48;;
54464;SDS011;40374;49.480;20.016;2023-04-06T02:37:50;35.25;;;15.70;;
54464;SDS011;40374;49.480;20.016;2023-04-06T02:40:19;40.92;;;15.50;;
54464;SDS011;40374;49.480;20.016;2023-04-06T02:42:46;35.03;;;14.50;;
54464;SDS011;40374;49.480;20.016;2023-04-06T02:45:16;39.70;;;15.40;;
54464;SDS011;40374;49.480;20.016;2023-04-06T02:47:46;35.30;;;16.35;;
54464;SDS011;40374;49.480;20.016;2023-04-06T02:50:15;34.92;;;15.65;;
54464;SDS011;40374;49.480;20.016;2023-04-06T02:52:52;31.15;;;15.07;;
54464;SDS011;40374;49.480;20.016;2023-04-06T02:55:20;40.30;;;15.55;;
54464;SDS011;40374;49.480;20.016;2023-04-06T02:57:49;32.67;;;14.77;;
54464;SDS011;40374;49.480;20.016;2023-04-06T03:00:20;37.95;;;14.68;;
54464;SDS011;40374;49.480;20.016;2023-04-06T03:02:48;36.13;;;15.38;;
54464;SDS011;40374;49.480;20.016;2023-04-06T03:05:17;38.15;;;15.38;;
54464;SDS011;40374;49.480;20.016;2023-04-06T03:07:46;40.90;;;15.75;;
54464;SDS011;40374;49.480;20.016;2023-04-06T03:10:35;31.65;;;13.75;;
54464;SDS011;40374;49.480;20.016;2023-04-06T03:13:03;39.53;;;15.35;;
54464;SDS011;40374;49.480;20.016;2023-04-06T03:16:05;32.72;;;14.50;;
54464;SDS011;40374;49.480;20.016;2023-04-06T03:18:37;36.88;;;15.20;;
54464;SDS011;40374;49.480;20.016;2023-04-06T03:21:04;37.63;;;15.80;;
54464;SDS011;40374;49.480;20.016;2023-04-06T03:23:42;40.63;;;15.32;;
54464;SDS011;40374;49.480;20.016;2023-04-06T03:26:10;44.38;;;17.00;;
54464;SDS011;40374;49.480;20.016;2023-04-06T03:28:37;52.20;;;16.80;;
54464;SDS011;40374;49.480;20.016;2023-04-06T03:31:05;38.13;;;16.73;;
54464;SDS011;40374;49.480;20.016;2023-04-06T03:33:54;49.88;;;17.35;;
54464;SDS011;40374;49.480;20.016;2023-04-06T03:36:25;44.10;;;17.45;;
54464;SDS011;40374;49.480;20.016;2023-04-06T03:38:56;40.40;;;17.02;;
54464;SDS011;40374;49.480;20.016;2023-04-06T03:41:23;45.95;;;17.77;;
54464;SDS011;40374;49.480;20.016;2023-04-06T03:43:58;43.60;;;17.23;;
54464;SDS011;40374;49.480;20.016;2023-04-06T03:46:25;45.95;;;17.23;;
54464;SDS011;40374;49.480;20.016;2023-04-06T03:48:56;40.20;;;15.95;;
54464;SDS011;40374;49.480;20.016;2023-04-06T03:51:23;48.28;;;18.05;;
54464;SDS011;40374;49.480;20.016;2023-04-06T03:53:55;43.80;;;17.30;;
54464;SDS011;40374;49.480;20.016;2023-04-06T03:56:22;45.83;;;16.88;;
54464;SDS011;40374;49.480;20.016;2023-04-06T03:58:50;50.20;;;16.70;;
54464;SDS011;40374;49.480;20.016;2023-04-06T04:01:20;33.30;;;14.50;;
54464;SDS011;40374;49.480;20.016;2023-04-06T04:03:47;41.58;;;14.90;;
54464;SDS011;40374;49.480;20.016;2023-04-06T04:06:17;33.75;;;13.95;;
54464;SDS011;40374;49.480;20.016;2023-04-06T04:08:45;36.72;;;14.75;;
54464;SDS011;40374;49.480;20.016;2023-04-06T04:11:12;41.63;;;13.38;;
54464;SDS011;40374;49.480;20.016;2023-04-06T04:13:40;36.95;;;14.90;;
54464;SDS011;40374;49.480;20.016;2023-04-06T04:16:08;37.03;;;16.02;;
54464;SDS011;40374;49.480;20.016;2023-04-06T04:18:36;40.58;;;14.20;;
54464;SDS011;40374;49.480;20.016;2023-04-06T04:21:05;40.00;;;14.65;;
54464;SDS011;40374;49.480;20.016;2023-04-06T04:23:36;38.70;;;15.38;;
54464;SDS011;40374;49.480;20.016;2023-04-06T04:26:03;34.78;;;14.60;;
54464;SDS011;40374;49.480;20.016;2023-04-06T04:28:32;31.13;;;13.32;;
54464;SDS011;40374;49.480;20.016;2023-04-06T04:30:59;32.38;;;14.68;;
54464;SDS011;40374;49.480;20.016;2023-04-06T04:33:30;35.75;;;16.05;;
54464;SDS011;40374;49.480;20.016;2023-04-06T04:35:59;52.38;;;17.38;;
54464;SDS011;40374;49.480;20.016;2023-04-06T04:38:31;44.25;;;17.45;;
54464;SDS011;40374;49.480;20.016;2023-04-06T04:40:59;48.78;;;16.50;;
54464;SDS011;40374;49.480;20.016;2023-04-06T04:43:27;41.17;;;16.20;;
54464;SDS011;40374;49.480;20.016;2023-04-06T04:45:59;49.03;;;18.73;;
54464;SDS011;40374;49.480;20.016;2023-04-06T04:48:37;42.65;;;16.25;;
54464;SDS011;40374;49.480;20.016;2023-04-06T04:51:06;41.83;;;15.85;;
54464;SDS011;40374;49.480;20.016;2023-04-06T04:53:51;39.50;;;15.30;;
54464;SDS011;40374;49.480;20.016;2023-04-06T04:56:23;40.33;;;15.52;;
54464;SDS011;40374;49.480;20.016;2023-04-06T04:58:56;51.75;;;17.02;;
54464;SDS011;40374;49.480;20.016;2023-04-06T05:01:26;46.17;;;16.20;;
54464;SDS011;40374;49.480;20.016;2023-04-06T05:03:54;47.90;;;16.23;;
54464;SDS011;40374;49.480;20.016;2023-04-06T05:06:22;42.85;;;16.90;;
54464;SDS011;40374;49.480;20.016;2023-04-06T05:08:50;45.95;;;17.25;;
54464;SDS011;40374;49.480;20.016;2023-04-06T05:11:17;39.33;;;16.23;;
54464;SDS011;40374;49.480;20.016;2023-04-06T05:13:53;41.15;;;15.50;;
54464;SDS011;40374;49.480;20.016;2023-04-06T05:16:23;40.25;;;14.00;;
54464;SDS011;40374;49.480;20.016;2023-04-06T05:18:51;39.40;;;14.70;;
54464;SDS011;40374;49.480;20.016;2023-04-06T05:21:20;34.53;;;14.52;;
54464;SDS011;40374;49.480;20.016;2023-04-06T05:23:56;37.00;;;14.00;;
54464;SDS011;40374;49.480;20.016;2023-04-06T05:26:23;40.67;;;15.15;;
54464;SDS011;40374;49.480;20.016;2023-04-06T05:28:55;40.17;;;15.30;;
54464;SDS011;40374;49.480;20.016;2023-04-06T05:31:25;33.55;;;12.38;;
54464;SDS011;40374;49.480;20.016;2023-04-06T05:33:52;28.95;;;11.48;;
54464;SDS011;40374;49.480;20.016;2023-04-06T05:36:29;25.95;;;10.40;;
54464;SDS011;40374;49.480;20.016;2023-04-06T05:39:02;19.10;;;8.80;;
54464;SDS011;40374;49.480;20.016;2023-04-06T05:41:34;17.67;;;6.95;;
54464;SDS011;40374;49.480;20.016;2023-04-06T05:44:03;15.75;;;6.57;;
54464;SDS011;40374;49.480;20.016;2023-04-06T05:46:31;22.92;;;9.43;;
54464;SDS011;40374;49.480;20.016;2023-04-06T05:49:01;18.58;;;7.68;;
54464;SDS011;40374;49.480;20.016;2023-04-06T05:51:32;22.73;;;8.32;;
54464;SDS011;40374;49.480;20.016;2023-04-06T05:54:00;26.60;;;11.13;;
54464;SDS011;40374;49.480;20.016;2023-04-06T05:56:27;23.02;;;8.82;;
54464;SDS011;40374;49.480;20.016;2023-04-06T05:58:57;22.15;;;9.20;;
54464;SDS011;40374;49.480;20.016;2023-04-06T06:01:27;30.42;;;9.63;;
54464;SDS011;40374;49.480;20.016;2023-04-06T06:03:56;31.02;;;10.75;;
54464;SDS011;40374;49.480;20.016;2023-04-06T06:06:27;20.90;;;9.23;;
54464;SDS011;40374;49.480;20.016;2023-04-06T06:09:14;31.25;;;11.15;;
54464;SDS011;40374;49.480;20.016;2023-04-06T06:11:50;28.63;;;10.73;;
54464;SDS011;40374;49.480;20.016;2023-04-06T06:14:20;26.50;;;10.35;;
54464;SDS011;40374;49.480;20.016;2023-04-06T06:16:48;23.83;;;9.88;;
54464;SDS011;40374;49.480;20.016;2023-04-06T06:19:16;27.95;;;11.40;;
54464;SDS011;40374;49.480;20.016;2023-04-06T06:21:46;27.00;;;9.70;;
54464;SDS011;40374;49.480;20.016;2023-04-06T06:24:14;26.50;;;11.18;;
54464;SDS011;40374;49.480;20.016;2023-04-06T06:26:41;29.38;;;10.13;;
54464;SDS011;40374;49.480;20.016;2023-04-06T06:29:12;30.65;;;12.13;;
54464;SDS011;40374;49.480;20.016;2023-04-06T06:31:39;23.92;;;11.07;;
54464;SDS011;40374;49.480;20.016;2023-04-06T06:34:07;24.58;;;10.13;;
54464;SDS011;40374;49.480;20.016;2023-04-06T06:36:37;27.58;;;11.27;;
54464;SDS011;40374;49.480;20.016;2023-04-06T06:39:07;20.58;;;7.97;;
54464;SDS011;40374;49.480;20.016;2023-04-06T06:41:36;23.42;;;10.18;;
54464;SDS011;40374;49.480;20.016;2023-04-06T06:44:05;28.42;;;10.10;;
54464;SDS011;40374;49.480;20.016;2023-04-06T06:46:34;26.98;;;9.82;;
54464;SDS011;40374;49.480;20.016;2023-04-06T06:49:01;23.00;;;9.77;;
54464;SDS011;40374;49.480;20.016;2023-04-06T06:51:29;24.85;;;9.98;;
54464;SDS011;40374;49.480;20.016;2023-04-06T07:08:35;21.15;;;8.68;;
54464;SDS011;40374;49.480;20.016;2023-04-06T07:11:03;21.83;;;8.60;;
54464;SDS011;40374;49.480;20.016;2023-04-06T07:13:31;25.38;;;9.90;;
54464;SDS011;40374;49.480;20.016;2023-04-06T07:16:01;17.27;;;7.88;;
54464;SDS011;40374;49.480;20.016;2023-04-06T07:18:28;17.40;;;7.60;;
54464;SDS011;40374;49.480;20.016;2023-04-06T07:20:58;23.92;;;9.85;;
54464;SDS011;40374;49.480;20.016;2023-04-06T07:23:25;31.75;;;8.38;;
54464;SDS011;40374;49.480;20.016;2023-04-06T07:25:53;19.50;;;8.75;;
54464;SDS011;40374;49.480;20.016;2023-04-06T07:28:21;26.55;;;9.38;;
54464;SDS011;40374;49.480;20.016;2023-04-06T07:30:49;23.85;;;8.70;;
54464;SDS011;40374;49.480;20.016;2023-04-06T07:33:17;22.40;;;8.75;;
54464;SDS011;40374;49.480;20.016;2023-04-06T07:35:46;18.55;;;7.22;;
54464;SDS011;40374;49.480;20.016;2023-04-06T07:38:14;19.73;;;9.57;;
54464;SDS011;40374;49.480;20.016;2023-04-06T07:40:43;13.63;;;7.00;;
54464;SDS011;40374;49.480;20.016;2023-04-06T07:43:10;13.68;;;6.40;;
54464;SDS011;40374;49.480;20.016;2023-04-06T07:45:38;22.65;;;8.65;;
54464;SDS011;40374;49.480;20.016;2023-04-06T07:48:05;18.08;;;6.85;;
54464;SDS011;40374;49.480;20.016;2023-04-06T07:50:34;14.20;;;6.68;;
54464;SDS011;40374;49.480;20.016;2023-04-06T07:53:02;14.48;;;6.65;;
54464;SDS011;40374;49.480;20.016;2023-04-06T07:55:30;17.13;;;7.53;;
54464;SDS011;40374;49.480;20.016;2023-04-06T07:57:57;13.10;;;6.53;;
54464;SDS011;40374;49.480;20.016;2023-04-06T08:00:25;12.05;;;6.22;;
54464;SDS011;40374;49.480;20.016;2023-04-06T08:02:52;17.83;;;6.47;;
54464;SDS011;40374;49.480;20.016;2023-04-06T08:05:20;15.65;;;6.32;;
54464;SDS011;40374;49.480;20.016;2023-04-06T08:07:47;16.75;;;6.95;;
54464;SDS011;40374;49.480;20.016;2023-04-06T08:10:15;12.77;;;5.70;;
54464;SDS011;40374;49.480;20.016;2023-04-06T08:12:42;15.85;;;7.40;;
54464;SDS011;40374;49.480;20.016;2023-04-06T08:15:10;23.63;;;5.65;;
54464;SDS011;40374;49.480;20.016;2023-04-06T08:17:40;16.85;;;6.88;;
54464;SDS011;40374;49.480;20.016;2023-04-06T09:38:09;13.63;;;6.78;;
54464;SDS011;40374;49.480;20.016;2023-04-06T09:40:47;22.67;;;8.32;;
54464;SDS011;40374;49.480;20.016;2023-04-06T11:12:32;20.95;;;10.43;;
54464;SDS011;40374;49.480;20.016;2023-04-06T11:15:00;24.42;;;10.55;;
54464;SDS011;40374;49.480;20.016;2023-04-06T11:17:35;23.90;;;8.52;;
54464;SDS011;40374;49.480;20.016;2023-04-06T11:20:04;24.13;;;10.10;;
54464;SDS011;40374;49.480;20.016;2023-04-06T11:22:36;27.30;;;11.23;;
54464;SDS011;40374;49.480;20.016;2023-04-06T11:25:19;22.42;;;11.73;;
54464;SDS011;40374;49.480;20.016;2023-04-06T11:27:47;27.27;;;10.88;;
54464;SDS011;40374;49.480;20.016;2023-04-06T11:30:17;27.10;;;12.70;;
54464;SDS011;40374;49.480;20.016;2023-04-06T11:32:45;31.45;;;13.98;;
54464;SDS011;40374;49.480;20.016;2023-04-06T11:37:48;32.05;;;13.90;;
54464;SDS011;40374;49.480;20.016;2023-04-06T11:40:20;28.45;;;14.70;;
54464;SDS011;40374;49.480;20.016;2023-04-06T11:42:53;27.55;;;12.00;;
54464;SDS011;40374;49.480;20.016;2023-04-06T11:45:21;25.60;;;13.57;;
54464;SDS011;40374;49.480;20.016;2023-04-06T11:47:56;24.50;;;12.90;;
54464;SDS011;40374;49.480;20.016;2023-04-06T11:50:32;30.17;;;13.40;;
54464;SDS011;40374;49.480;20.016;2023-04-06T11:53:03;30.48;;;13.77;;
54464;SDS011;40374;49.480;20.016;2023-04-06T11:55:36;25.77;;;13.25;;
54464;SDS011;40374;49.480;20.016;2023-04-06T11:58:05;25.63;;;13.50;;
54464;SDS011;40374;49.480;20.016;2023-04-06T12:00:35;24.90;;;12.65;;
54464;SDS011;40374;49.480;20.016;2023-04-06T12:03:03;27.80;;;13.55;;
54464;SDS011;40374;49.480;20.016;2023-04-06T13:24:53;35.33;;;16.15;;
54464;SDS011;40374;49.480;20.016;2023-04-06T13:27:21;33.90;;;16.50;;
54464;SDS011;40374;49.480;20.016;2023-04-06T13:29:50;32.60;;;14.60;;
54464;SDS011;40374;49.480;20.016;2023-04-06T13:32:18;35.47;;;15.57;;
54464;SDS011;40374;49.480;20.016;2023-04-06T13:34:48;36.67;;;15.43;;
54464;SDS011;40374;49.480;20.016;2023-04-06T13:37:16;37.53;;;16.38;;
54464;SDS011;40374;49.480;20.016;2023-04-06T13:39:43;30.30;;;14.43;;
54464;SDS011;40374;49.480;20.016;2023-04-06T13:42:11;39.95;;;17.02;;
54464;SDS011;40374;49.480;20.016;2023-04-06T13:44:38;32.35;;;15.40;;
54464;SDS011;40374;49.480;20.016;2023-04-06T13:47:05;29.27;;;15.90;;
54464;SDS011;40374;49.480;20.016;2023-04-06T13:49:40;30.48;;;16.83;;
54464;SDS011;40374;49.480;20.016;2023-04-06T13:52:09;32.45;;;16.80;;
54464;SDS011;40374;49.480;20.016;2023-04-06T13:54:39;42.55;;;20.27;;
54464;SDS011;40374;49.480;20.016;2023-04-06T13:57:09;37.40;;;18.23;;
54464;SDS011;40374;49.480;20.016;2023-04-06T13:59:37;39.25;;;17.95;;
54464;SDS011;40374;49.480;20.016;2023-04-06T14:02:06;41.28;;;20.02;;
54464;SDS011;40374;49.480;20.016;2023-04-06T14:04:35;41.20;;;19.42;;
54464;SDS011;40374;49.480;20.016;2023-04-06T14:07:03;41.28;;;20.25;;
54464;SDS011;40374;49.480;20.016;2023-04-06T14:09:34;45.10;;;19.58;;
54464;SDS011;40374;49.480;20.016;2023-04-06T14:12:02;42.20;;;18.30;;
54464;SDS011;40374;49.480;20.016;2023-04-06T14:14:29;40.78;;;20.60;;
54464;SDS011;40374;49.480;20.016;2023-04-06T14:16:57;44.42;;;19.10;;
54464;SDS011;40374;49.480;20.016;2023-04-06T14:19:24;39.08;;;18.58;;
54464;SDS011;40374;49.480;20.016;2023-04-06T14:21:54;40.17;;;19.23;;
54464;SDS011;40374;49.480;20.016;2023-04-06T14:24:24;37.60;;;19.48;;
54464;SDS011;40374;49.480;20.016;2023-04-06T14:26:51;37.20;;;18.92;;
54464;SDS011;40374;49.480;20.016;2023-04-06T14:29:19;36.20;;;16.35;;
54464;SDS011;40374;49.480;20.016;2023-04-06T14:31:47;40.28;;;17.85;;
54464;SDS011;40374;49.480;20.016;2023-04-06T14:34:15;37.92;;;16.42;;
54464;SDS011;40374;49.480;20.016;2023-04-06T14:36:43;37.83;;;16.98;;
54464;SDS011;40374;49.480;20.016;2023-04-06T14:39:11;41.42;;;19.75;;
54464;SDS011;40374;49.480;20.016;2023-04-06T14:41:38;37.70;;;18.00;;
54464;SDS011;40374;49.480;20.016;2023-04-06T14:44:06;37.15;;;18.20;;
54464;SDS011;40374;49.480;20.016;2023-04-06T14:46:34;37.63;;;18.88;;
54464;SDS011;40374;49.480;20.016;2023-04-06T14:49:01;32.03;;;17.30;;
54464;SDS011;40374;49.480;20.016;2023-04-06T14:51:29;39.03;;;17.90;;
54464;SDS011;40374;49.480;20.016;2023-04-06T14:53:56;35.05;;;16.92;;
54464;SDS011;40374;49.480;20.016;2023-04-06T14:56:24;40.08;;;18.85;;
54464;SDS011;40374;49.480;20.016;2023-04-06T14:58:51;41.28;;;18.70;;
54464;SDS011;40374;49.480;20.016;2023-04-06T15:01:19;43.85;;;19.90;;
54464;SDS011;40374;49.480;20.016;2023-04-06T15:03:50;47.38;;;21.25;;
54464;SDS011;40374;49.480;20.016;2023-04-06T15:06:18;49.85;;;23.63;;
54464;SDS011;40374;49.480;20.016;2023-04-06T15:08:48;47.40;;;19.77;;
54464;SDS011;40374;49.480;20.016;2023-04-06T15:11:16;43.75;;;18.45;;
54464;SDS011;40374;49.480;20.016;2023-04-06T15:13:46;37.92;;;19.50;;
54464;SDS011;40374;49.480;20.016;2023-04-06T15:16:14;43.97;;;19.13;;
54464;SDS011;40374;49.480;20.016;2023-04-06T15:18:41;40.42;;;18.42;;
54464;SDS011;40374;49.480;20.016;2023-04-06T15:21:10;41.45;;;19.35;;
54464;SDS011;40374;49.480;20.016;2023-04-06T15:23:38;43.47;;;20.73;;
54464;SDS011;40374;49.480;20.016;2023-04-06T15:26:05;39.75;;;19.17;;
54464;SDS011;40374;49.480;20.016;2023-04-06T15:28:35;49.33;;;21.85;;
54464;SDS011;40374;49.480;20.016;2023-04-06T15:31:02;42.33;;;19.27;;
54464;SDS011;40374;49.480;20.016;2023-04-06T15:33:33;41.22;;;19.95;;
54464;SDS011;40374;49.480;20.016;2023-04-06T15:36:02;56.55;;;25.98;;
54464;SDS011;40374;49.480;20.016;2023-04-06T15:38:33;53.50;;;23.55;;
54464;SDS011;40374;49.480;20.016;2023-04-06T15:41:01;51.28;;;23.30;;
54464;SDS011;40374;49.480;20.016;2023-04-06T15:43:29;56.40;;;25.67;;
54464;SDS011;40374;49.480;20.016;2023-04-06T15:45:59;53.60;;;23.65;;
54464;SDS011;40374;49.480;20.016;2023-04-06T15:48:28;53.80;;;24.08;;
54464;SDS011;40374;49.480;20.016;2023-04-06T15:50:58;51.05;;;25.67;;
54464;SDS011;40374;49.480;20.016;2023-04-06T15:53:25;53.78;;;26.77;;
54464;SDS011;40374;49.480;20.016;2023-04-06T15:55:58;52.47;;;25.45;;
54464;SDS011;40374;49.480;20.016;2023-04-06T15:58:26;50.63;;;26.80;;
54464;SDS011;40374;49.480;20.016;2023-04-06T16:00:54;59.28;;;26.27;;
54464;SDS011;40374;49.480;20.016;2023-04-06T16:03:22;64.88;;;30.23;;
54464;SDS011;40374;49.480;20.016;2023-04-06T16:05:51;79.85;;;34.78;;
54464;SDS011;40374;49.480;20.016;2023-04-06T16:08:34;78.25;;;35.97;;
54464;SDS011;40374;49.480;20.016;2023-04-06T16:11:03;77.05;;;34.65;;
54464;SDS011;40374;49.480;20.016;2023-04-06T16:13:30;99.40;;;41.53;;
54464;SDS011;40374;49.480;20.016;2023-04-06T16:15:58;109.85;;;44.80;;
54464;SDS011;40374;49.480;20.016;2023-04-06T16:18:26;116.45;;;47.22;;
54464;SDS011;40374;49.480;20.016;2023-04-06T16:20:54;119.22;;;46.03;;
54464;SDS011;40374;49.480;20.016;2023-04-06T16:23:22;125.20;;;47.22;;
54464;SDS011;40374;49.480;20.016;2023-04-06T16:25:49;112.03;;;45.00;;
54464;SDS011;40374;49.480;20.016;2023-04-06T16:28:16;111.97;;;41.72;;
54464;SDS011;40374;49.480;20.016;2023-04-06T16:30:44;96.80;;;38.78;;
54464;SDS011;40374;49.480;20.016;2023-04-06T16:33:12;105.35;;;43.30;;
54464;SDS011;40374;49.480;20.016;2023-04-06T16:35:43;115.15;;;41.85;;
54464;SDS011;40374;49.480;20.016;2023-04-06T16:38:12;83.97;;;36.92;;
54464;SDS011;40374;49.480;20.016;2023-04-06T16:40:39;81.32;;;33.90;;
54464;SDS011;40374;49.480;20.016;2023-04-06T16:43:07;60.90;;;27.95;;
54464;SDS011;40374;49.480;20.016;2023-04-06T16:45:36;68.43;;;30.15;;
54464;SDS011;40374;49.480;20.016;2023-04-06T16:48:04;68.95;;;33.53;;
54464;SDS011;40374;49.480;20.016;2023-04-06T16:50:35;66.28;;;31.58;;
54464;SDS011;40374;49.480;20.016;2023-04-06T16:53:03;58.22;;;27.45;;
54464;SDS011;40374;49.480;20.016;2023-04-06T16:55:30;63.47;;;30.85;;
54464;SDS011;40374;49.480;20.016;2023-04-06T16:57:58;54.60;;;26.58;;
54464;SDS011;40374;49.480;20.016;2023-04-06T17:00:25;63.15;;;29.25;;
54464;SDS011;40374;49.480;20.016;2023-04-06T17:02:52;56.72;;;29.02;;
54464;SDS011;40374;49.480;20.016;2023-04-06T17:05:21;59.60;;;27.58;;
54464;SDS011;40374;49.480;20.016;2023-04-06T17:07:52;64.28;;;30.33;;
54464;SDS011;40374;49.480;20.016;2023-04-06T17:10:20;59.03;;;28.77;;
54464;SDS011;40374;49.480;20.016;2023-04-06T17:13:00;63.92;;;27.98;;
54464;SDS011;40374;49.480;20.016;2023-04-06T17:15:27;62.83;;;28.40;;
54464;SDS011;40374;49.480;20.016;2023-04-06T17:17:55;69.47;;;29.50;;
54464;SDS011;40374;49.480;20.016;2023-04-06T17:20:24;67.65;;;30.52;;
54464;SDS011;40374;49.480;20.016;2023-04-06T17:22:51;73.82;;;34.00;;
54464;SDS011;40374;49.480;20.016;2023-04-06T17:25:19;82.65;;;36.15;;
54464;SDS011;40374;49.480;20.016;2023-04-06T17:27:47;110.90;;;47.22;;
54464;SDS011;40374;49.480;20.016;2023-04-06T17:30:15;146.13;;;55.03;;
54464;SDS011;40374;49.480;20.016;2023-04-06T17:32:44;139.23;;;56.28;;
54464;SDS011;40374;49.480;20.016;2023-04-06T17:35:12;117.53;;;49.33;;
54464;SDS011;40374;49.480;20.016;2023-04-06T17:37:39;141.40;;;53.30;;
54464;SDS011;40374;49.480;20.016;2023-04-06T17:40:10;140.43;;;57.92;;
54464;SDS011;40374;49.480;20.016;2023-04-06T17:42:38;112.65;;;42.05;;
54464;SDS011;40374;49.480;20.016;2023-04-06T17:45:06;124.70;;;49.00;;
54464;SDS011;40374;49.480;20.016;2023-04-06T17:47:33;135.50;;;52.38;;
54464;SDS011;40374;49.480;20.016;2023-04-06T17:50:01;123.03;;;48.58;;
54464;SDS011;40374;49.480;20.016;2023-04-06T17:52:29;185.20;;;71.95;;
54464;SDS011;40374;49.480;20.016;2023-04-06T17:54:58;128.30;;;54.75;;
54464;SDS011;40374;49.480;20.016;2023-04-06T17:57:25;107.30;;;45.95;;
54464;SDS011;40374;49.480;20.016;2023-04-06T17:59:53;120.32;;;49.83;;
54464;SDS011;40374;49.480;20.016;2023-04-06T18:02:21;86.13;;;34.17;;
54464;SDS011;40374;49.480;20.016;2023-04-06T18:04:50;80.82;;;34.42;;
54464;SDS011;40374;49.480;20.016;2023-04-06T18:07:19;149.80;;;62.90;;
54464;SDS011;40374;49.480;20.016;2023-04-06T18:09:47;137.82;;;58.63;;
54464;SDS011;40374;49.480;20.016;2023-04-06T18:12:14;132.55;;;51.65;;
54464;SDS011;40374;49.480;20.016;2023-04-06T18:14:42;156.32;;;68.57;;
54464;SDS011;40374;49.480;20.016;2023-04-06T18:17:11;151.02;;;69.60;;
54464;SDS011;40374;49.480;20.016;2023-04-06T18:19:39;131.35;;;58.47;;
54464;SDS011;40374;49.480;20.016;2023-04-06T18:22:07;143.48;;;65.13;;
54464;SDS011;40374;49.480;20.016;2023-04-06T18:24:35;123.05;;;56.67;;
54464;SDS011;40374;49.480;20.016;2023-04-06T18:27:09;144.02;;;63.47;;
54464;SDS011;40374;49.480;20.016;2023-04-06T18:29:37;214.15;;;93.30;;
54464;SDS011;40374;49.480;20.016;2023-04-06T18:32:05;121.88;;;53.80;;
54464;SDS011;40374;49.480;20.016;2023-04-06T18:34:33;247.20;;;101.45;;
54464;SDS011;40374;49.480;20.016;2023-04-06T18:37:01;161.43;;;66.45;;
54464;SDS011;40374;49.480;20.016;2023-04-06T18:39:29;161.65;;;67.40;;
54464;SDS011;40374;49.480;20.016;2023-04-06T18:41:57;144.30;;;60.03;;
54464;SDS011;40374;49.480;20.016;2023-04-06T18:44:25;152.80;;;60.72;;
54464;SDS011;40374;49.480;20.016;2023-04-06T18:46:52;163.73;;;61.38;;